createdAt,value
2023-04-04T00:01:35.986Z,2.66
2023-04-04T00:04:05.882Z,2.66
2023-04-04T00:06:36.572Z,3.04
2023-04-04T00:09:06.813Z,2.28
2023-04-04T00:11:36.758Z,2.28
2023-04-04T00:14:06.768Z,2.09
2023-04-04T00:16:37.076Z,2.85
2023-04-04T00:19:07.427Z,2.66
2023-04-04T00:21:37.160Z,2.66
2023-04-04T00:24:07.943Z,2.47
2023-04-04T00:26:38.032Z,1.90
2023-04-04T00:29:07.921Z,3.04
2023-04-04T00:31:37.852Z,2.28
2023-04-04T00:34:07.950Z,2.09
2023-04-04T00:36:38.097Z,1.90
2023-04-04T00:39:07.986Z,1.90
2023-04-04T00:41:38.628Z,2.47
2023-04-04T00:44:08.478Z,2.66
2023-04-04T00:46:38.252Z,2.28
2023-04-04T00:49:07.998Z,2.09
2023-04-04T00:51:37.949Z,3.23
2023-04-04T00:54:07.887Z,2.28
2023-04-04T00:56:40.006Z,1.90
2023-04-04T00:59:09.685Z,2.47
2023-04-04T01:01:38.057Z,2.66
2023-04-04T01:04:06.349Z,2.47
2023-04-04T01:06:35.072Z,2.28
2023-04-04T01:09:03.690Z,1.90
2023-04-04T01:11:31.844Z,1.90
2023-04-04T01:13:59.903Z,3.23
2023-04-04T01:16:28.190Z,2.66
2023-04-04T01:18:56.887Z,3.80
2023-04-04T01:21:27.350Z,3.23
2023-04-04T01:24:03.805Z,2.28
2023-04-04T01:26:31.729Z,3.04
2023-04-04T01:29:00.746Z,2.47
2023-04-04T01:31:42.940Z,2.66
2023-04-04T01:34:43.123Z,2.66
2023-04-04T01:37:34.208Z,2.66
2023-04-04T01:40:28.560Z,2.47
2023-04-04T01:42:58.687Z,2.09
2023-04-04T01:45:29.834Z,2.47
2023-04-04T01:47:59.353Z,2.85
2023-04-04T01:50:29.136Z,3.04
2023-04-04T01:52:58.969Z,2.28
2023-04-04T01:55:30.084Z,2.47
2023-04-04T01:57:58.894Z,3.23
2023-04-04T02:00:28.700Z,2.85
2023-04-04T02:02:59.117Z,2.85
2023-04-04T02:05:29.059Z,2.09
2023-04-04T02:07:58.936Z,3.04
2023-04-04T02:10:30.491Z,3.61
2023-04-04T02:12:59.732Z,2.47
2023-04-04T02:15:29.521Z,3.42
2023-04-04T02:18:01.778Z,2.85
2023-04-04T02:20:29.701Z,2.47
2023-04-04T02:22:59.509Z,3.61
2023-04-04T02:25:29.264Z,2.66
2023-04-04T02:27:59.060Z,3.04
2023-04-04T02:30:29.025Z,3.61
2023-04-04T02:32:59.919Z,4.18
2023-04-04T02:35:29.246Z,3.04
2023-04-04T02:37:59.236Z,4.37
2023-04-04T02:40:29.277Z,4.37
2023-04-04T02:42:57.390Z,3.61
2023-04-04T02:45:26.255Z,3.80
2023-04-04T02:47:54.255Z,3.42
2023-04-04T02:50:22.781Z,4.56
2023-04-04T02:52:51.638Z,3.61
2023-04-04T02:55:19.948Z,3.42
2023-04-04T02:57:52.538Z,3.61
2023-04-04T03:00:20.616Z,3.99
2023-04-04T03:02:56.708Z,3.23
2023-04-04T03:05:27.486Z,3.61
2023-04-04T03:07:58.794Z,3.04
2023-04-04T03:10:30.125Z,3.61
2023-04-04T03:12:59.743Z,3.23
2023-04-04T03:15:29.220Z,3.04
2023-04-04T03:18:00.178Z,3.61
2023-04-04T03:20:29.738Z,3.42
2023-04-04T03:22:59.624Z,2.85
2023-04-04T03:25:29.540Z,3.23
2023-04-04T03:28:11.305Z,3.42
2023-04-04T03:30:40.659Z,3.04
2023-04-04T03:33:09.701Z,3.42
2023-04-04T03:35:40.352Z,3.04
2023-04-04T03:38:09.964Z,3.23
2023-04-04T03:40:37.949Z,3.23
2023-04-04T03:43:09.573Z,3.23
2023-04-04T03:45:38.586Z,5.13
2023-04-04T03:48:06.759Z,4.75
2023-04-04T03:50:36.871Z,3.80
2023-04-04T03:53:06.126Z,3.61
2023-04-04T03:55:34.946Z,3.42
2023-04-04T03:58:03.269Z,3.61
2023-04-04T04:00:33.127Z,3.23
2023-04-04T04:03:02.964Z,4.37
2023-04-04T04:05:32.909Z,4.18
2023-04-04T04:08:02.823Z,4.18
2023-04-04T04:10:34.264Z,3.80
2023-04-04T04:13:03.285Z,3.80
2023-04-04T04:15:33.196Z,3.99
2023-04-04T04:18:03.273Z,3.42
2023-04-04T04:20:33.512Z,3.42
2023-04-04T04:23:03.306Z,3.42
2023-04-04T04:25:33.027Z,3.61
2023-04-04T04:28:02.806Z,3.80
2023-04-04T04:30:32.880Z,3.61
2023-04-04T04:33:03.701Z,3.42
2023-04-04T04:35:38.618Z,4.56
2023-04-04T04:38:07.231Z,3.99
2023-04-04T04:40:36.906Z,4.37
2023-04-04T04:43:06.639Z,4.18
2023-04-04T04:45:36.691Z,4.18
2023-04-04T04:48:07.041Z,3.61
2023-04-04T04:50:36.674Z,3.80
2023-04-04T04:53:08.440Z,3.80
2023-04-04T04:55:37.690Z,3.23
2023-04-04T04:58:07.556Z,3.61
2023-04-04T05:00:38.873Z,4.18
2023-04-04T05:03:08.227Z,3.80
2023-04-04T05:05:38.294Z,4.94
2023-04-04T05:08:08.141Z,3.80
2023-04-04T05:10:38.380Z,3.61
2023-04-04T05:13:09.928Z,3.99
2023-04-04T05:15:38.952Z,4.94
2023-04-04T05:18:08.795Z,4.94
2023-04-04T05:20:38.792Z,3.42
2023-04-04T05:23:08.854Z,4.56
2023-04-04T05:25:38.540Z,4.37
2023-04-04T05:28:09.035Z,3.99
2023-04-04T05:30:39.193Z,5.32
2023-04-04T05:33:09.069Z,4.37
2023-04-04T05:35:39.104Z,5.13
2023-04-04T05:38:09.046Z,5.32
2023-04-04T05:40:39.174Z,3.99
2023-04-04T05:43:09.465Z,3.61
2023-04-04T05:45:40.685Z,3.80
2023-04-04T05:48:09.878Z,4.18
2023-04-04T05:50:39.793Z,4.18
2023-04-04T05:53:09.827Z,3.80
2023-04-04T05:55:39.567Z,4.94
2023-04-04T05:58:10.817Z,4.94
2023-04-04T06:00:39.732Z,4.94
2023-04-04T06:03:10.125Z,3.80
2023-04-04T06:05:44.202Z,5.13
2023-04-04T06:08:11.924Z,3.99
2023-04-04T06:10:42.158Z,3.80
2023-04-04T06:13:11.873Z,4.37
2023-04-04T06:15:41.878Z,4.37
2023-04-04T06:18:10.532Z,3.99
2023-04-04T06:20:38.914Z,3.61
2023-04-04T06:23:07.217Z,2.85
2023-04-04T06:25:37.228Z,3.23
2023-04-04T06:28:04.343Z,3.42
2023-04-04T06:30:37.853Z,2.85
2023-04-04T06:33:07.197Z,2.47
2023-04-04T06:35:35.577Z,2.47
2023-04-04T06:38:06.416Z,2.85
2023-04-04T06:40:36.331Z,3.23
2023-04-04T06:43:06.185Z,2.28
2023-04-04T06:45:36.117Z,2.47
2023-04-04T06:48:06.350Z,2.66
2023-04-04T06:50:36.573Z,2.47
2023-04-04T06:53:07.347Z,3.23
2023-04-04T06:55:37.176Z,3.23
2023-04-04T06:58:07.069Z,2.66
2023-04-04T07:00:37.106Z,2.85
2023-04-04T07:03:07.389Z,2.85
2023-04-04T07:05:39.902Z,1.90
2023-04-04T07:08:10.573Z,2.28
2023-04-04T07:10:41.275Z,1.71
2023-04-04T07:13:11.543Z,1.90
2023-04-04T07:15:48.764Z,2.28
2023-04-04T07:18:16.465Z,2.85
2023-04-04T07:20:47.704Z,2.66
2023-04-04T07:23:17.441Z,2.66
2023-04-04T07:25:47.665Z,2.66
2023-04-04T07:28:17.531Z,1.90
2023-04-04T07:30:47.353Z,4.56
2023-04-04T07:33:17.149Z,3.23
2023-04-04T07:35:47.049Z,2.66
2023-04-04T07:38:17.601Z,2.47
2023-04-04T07:40:50.552Z,2.47
2023-04-04T07:43:20.140Z,2.28
2023-04-04T07:45:49.953Z,2.85
2023-04-04T07:48:21.695Z,2.28
2023-04-04T07:50:53.218Z,2.47
2023-04-04T07:53:23.526Z,2.47
2023-04-04T07:55:53.234Z,2.47
2023-04-04T07:58:23.112Z,2.66
2023-04-04T08:00:52.912Z,3.04
2023-04-04T08:03:24.116Z,3.04
2023-04-04T08:05:54.153Z,2.28
2023-04-04T08:08:24.141Z,2.85
2023-04-04T08:10:53.958Z,2.47
2023-04-04T08:13:23.779Z,2.66
2023-04-04T08:15:53.589Z,2.47
2023-04-04T08:18:23.415Z,2.66
2023-04-04T08:20:53.138Z,2.47
2023-04-04T08:23:22.922Z,2.09
2023-04-04T08:25:52.649Z,2.47
2023-04-04T08:28:22.551Z,2.85
2023-04-04T08:30:54.303Z,2.47
2023-04-04T08:33:27.123Z,2.66
2023-04-04T08:36:04.830Z,3.42
2023-04-04T08:38:34.767Z,2.66
2023-04-04T08:41:04.650Z,2.47
2023-04-04T08:43:38.065Z,3.23
2023-04-04T08:46:11.678Z,3.04
2023-04-04T08:48:44.785Z,2.85
2023-04-04T08:51:19.469Z,2.47
2023-04-04T08:53:49.368Z,2.47
2023-04-04T08:56:19.592Z,3.42
2023-04-04T08:58:49.530Z,2.47
2023-04-04T09:01:19.498Z,2.28
2023-04-04T09:03:52.070Z,2.66
2023-04-04T09:06:22.069Z,2.28
2023-04-04T09:08:49.225Z,2.47
2023-04-04T09:11:21.144Z,2.66
2023-04-04T09:13:52.302Z,2.85
2023-04-04T09:16:22.697Z,2.09
2023-04-04T09:18:52.975Z,2.85
2023-04-04T09:21:22.838Z,2.66
2023-04-04T09:24:01.409Z,2.66
2023-04-04T09:26:52.787Z,2.28
2023-04-04T09:29:23.090Z,2.47
2023-04-04T09:31:53.102Z,2.47
2023-04-04T09:34:23.402Z,2.47
2023-04-04T09:36:54.013Z,3.04
2023-04-04T09:39:23.931Z,2.28
2023-04-04T09:41:55.609Z,1.90
2023-04-04T09:44:26.130Z,2.09
2023-04-04T09:50:07.475Z,2.85
2023-04-04T09:52:37.560Z,2.66
2023-04-04T09:55:06.926Z,2.66
2023-04-04T09:57:38.019Z,2.85
2023-04-04T10:00:09.417Z,2.47
2023-04-04T10:02:47.399Z,3.23
2023-04-04T10:05:18.015Z,2.66
2023-04-04T10:07:48.099Z,2.85
2023-04-04T10:10:18.221Z,2.85
2023-04-04T10:12:48.133Z,2.66
2023-04-04T10:15:18.046Z,2.66
2023-04-04T10:17:53.289Z,2.47
2023-04-04T10:20:23.433Z,2.85
2023-04-04T10:22:54.663Z,2.66
2023-04-04T10:25:21.598Z,3.04
2023-04-04T10:27:51.708Z,2.47
2023-04-04T10:30:21.681Z,3.80
2023-04-04T10:33:16.237Z,3.23
2023-04-04T10:35:52.430Z,3.61
2023-04-04T10:38:29.278Z,2.66
2023-04-04T10:41:02.323Z,2.47
2023-04-04T10:43:34.807Z,3.04
2023-04-04T10:46:21.040Z,2.85
2023-04-04T10:48:50.927Z,3.23
2023-04-04T10:51:21.033Z,2.85
2023-04-04T10:53:52.283Z,2.66
2023-04-04T10:56:23.941Z,3.61
2023-04-04T10:59:13.565Z,2.47
2023-04-04T11:02:02.099Z,3.04
2023-04-04T11:04:39.187Z,2.09
2023-04-04T11:07:16.147Z,2.28
2023-04-04T11:09:54.682Z,2.66
2023-04-04T11:12:36.352Z,2.66
2023-04-04T11:15:12.526Z,2.47
2023-04-04T11:17:49.172Z,2.28
2023-04-04T11:20:28.935Z,2.28
2023-04-04T11:23:25.803Z,2.66
2023-04-04T11:25:59.480Z,2.47
2023-04-04T11:28:34.436Z,2.47
2023-04-04T11:31:19.635Z,2.66
2023-04-04T11:34:14.713Z,2.47
2023-04-04T11:36:45.712Z,2.09
2023-04-04T11:39:50.669Z,2.66
2023-04-04T11:42:21.281Z,2.66
2023-04-04T11:44:50.965Z,2.28
2023-04-04T11:47:25.095Z,2.28
2023-04-04T11:49:56.262Z,2.85
2023-04-04T11:52:26.436Z,3.04
2023-04-04T11:54:56.143Z,2.85
2023-04-04T11:57:26.014Z,2.28
2023-04-04T11:59:57.032Z,2.85
2023-04-04T12:02:27.547Z,2.47
2023-04-04T12:04:59.603Z,2.85
2023-04-04T12:07:30.256Z,3.61
2023-04-04T12:09:58.703Z,2.47
2023-04-04T12:12:28.418Z,2.66
2023-04-04T12:15:06.790Z,2.47
2023-04-04T12:17:49.118Z,2.09
2023-04-04T12:20:24.076Z,2.28
2023-04-04T12:22:53.908Z,2.47
2023-04-04T12:25:25.845Z,2.28
2023-04-04T12:27:57.191Z,2.28
2023-04-04T12:30:27.458Z,2.85
2023-04-04T12:32:58.113Z,2.28
2023-04-04T12:35:28.025Z,2.47
2023-04-04T12:38:10.899Z,2.47
2023-04-04T12:40:41.070Z,2.66
2023-04-04T12:43:17.616Z,2.47
2023-04-04T12:45:52.140Z,2.47
2023-04-04T12:48:28.909Z,2.28
2023-04-04T12:50:58.757Z,2.09
2023-04-04T12:53:30.182Z,2.66
2023-04-04T12:56:06.528Z,2.47
2023-04-04T12:58:35.877Z,1.90
2023-04-04T13:01:05.177Z,2.85
2023-04-04T13:03:35.974Z,1.90
2023-04-04T13:06:03.723Z,2.28
2023-04-04T13:08:31.856Z,2.09
2023-04-04T13:11:06.952Z,2.09
2023-04-04T13:13:44.056Z,1.71
2023-04-04T13:16:35.632Z,1.90
2023-04-04T13:19:05.655Z,1.52
2023-04-04T13:21:35.594Z,2.85
2023-04-04T13:24:04.096Z,2.66
2023-04-04T13:26:31.964Z,2.09
2023-04-04T13:29:00.863Z,2.09
2023-04-04T13:31:28.880Z,1.90
2023-04-04T13:33:57.221Z,2.47
2023-04-04T13:36:28.245Z,2.28
2023-04-04T13:38:57.451Z,2.28
2023-04-04T13:41:25.812Z,1.90
2023-04-04T13:43:54.056Z,1.90
2023-04-04T13:46:22.826Z,2.09
2023-04-04T13:48:50.888Z,2.28
2023-04-04T13:51:19.382Z,2.09
2023-04-04T13:53:48.984Z,2.09
2023-04-04T13:56:18.747Z,2.47
2023-04-04T13:58:50.896Z,2.66
2023-04-04T14:01:22.891Z,2.47
2023-04-04T14:03:51.521Z,2.28
2023-04-04T14:06:21.452Z,2.47
2023-04-04T14:08:51.295Z,2.28
2023-04-04T14:11:21.858Z,2.09
2023-04-04T14:13:53.014Z,2.85
2023-04-04T14:16:23.473Z,2.28
2023-04-04T14:18:52.586Z,1.90
2023-04-04T14:21:22.310Z,2.47
2023-04-04T14:23:52.162Z,3.23
2023-04-04T14:26:21.992Z,2.09
2023-04-04T14:28:51.746Z,1.71
2023-04-04T14:31:21.698Z,2.28
2023-04-04T14:33:51.573Z,2.66
2023-04-04T14:36:21.644Z,2.85
2023-04-04T14:38:51.545Z,2.28
2023-04-04T14:41:22.094Z,2.28
2023-04-04T14:43:52.102Z,1.90
2023-04-04T14:46:21.653Z,3.04
2023-04-04T14:48:53.188Z,1.71
2023-04-04T14:51:22.329Z,2.09
2023-04-04T14:53:52.530Z,1.90
2023-04-04T14:56:23.471Z,2.09
2023-04-04T14:58:52.745Z,2.09
2023-04-04T15:01:23.251Z,2.85
2023-04-04T15:03:54.062Z,2.66
2023-04-04T15:06:24.261Z,1.90
2023-04-04T15:08:54.001Z,1.71
2023-04-04T15:11:27.281Z,1.71
2023-04-04T15:13:57.217Z,2.28
2023-04-04T15:16:29.762Z,2.47
2023-04-04T15:19:03.028Z,3.04
2023-04-04T15:21:31.667Z,2.28
2023-04-04T15:24:01.009Z,2.47
2023-04-04T15:26:31.235Z,1.90
2023-04-04T15:29:01.000Z,2.09
2023-04-04T15:31:32.140Z,1.90
2023-04-04T15:34:01.166Z,2.09
2023-04-04T15:36:31.384Z,2.28
2023-04-04T15:39:01.467Z,2.09
2023-04-04T15:41:31.522Z,2.47
2023-04-04T15:44:01.561Z,2.47
2023-04-04T15:46:31.855Z,1.71
2023-04-04T15:49:01.726Z,2.09
2023-04-04T15:51:31.800Z,2.09
2023-04-04T15:54:01.516Z,2.47
2023-04-04T15:56:31.544Z,2.28
2023-04-04T15:59:01.526Z,1.71
2023-04-04T16:01:33.870Z,2.28
2023-04-04T16:04:03.426Z,2.47
2023-04-04T16:06:32.808Z,2.28
2023-04-04T16:09:01.673Z,2.09
2023-04-04T16:11:29.744Z,2.85
2023-04-04T16:13:58.228Z,2.28
2023-04-04T16:16:26.786Z,2.09
2023-04-04T16:18:54.961Z,1.71
2023-04-04T16:21:23.354Z,1.71
2023-04-04T16:23:51.843Z,2.28
2023-04-04T16:26:21.268Z,2.09
2023-04-04T16:28:48.584Z,2.66
2023-04-04T16:31:17.224Z,2.47
2023-04-04T16:33:45.710Z,2.47
2023-04-04T16:36:14.119Z,2.85
2023-04-04T16:38:42.595Z,2.28
2023-04-04T16:41:10.652Z,2.28
2023-04-04T16:43:39.246Z,2.47
2023-04-04T16:46:07.721Z,2.85
2023-04-04T16:48:36.402Z,3.04
2023-04-04T16:51:04.754Z,4.18
2023-04-04T16:53:32.900Z,2.85
2023-04-04T16:56:01.329Z,2.09
2023-04-04T16:58:29.864Z,2.47
2023-04-04T17:00:58.562Z,2.66
2023-04-04T17:03:26.617Z,2.66
2023-04-04T17:05:59.694Z,3.23
2023-04-04T17:08:29.409Z,3.23
2023-04-04T17:10:58.292Z,3.04
2023-04-04T17:13:26.456Z,3.42
2023-04-04T17:15:55.014Z,3.04
2023-04-04T17:18:23.245Z,3.04
2023-04-04T17:20:52.643Z,3.61
2023-04-04T17:23:20.076Z,3.04
2023-04-04T17:25:48.463Z,2.85
2023-04-04T17:28:16.891Z,2.28
2023-04-04T17:30:46.541Z,2.47
2023-04-04T17:33:15.023Z,2.85
2023-04-04T17:35:42.800Z,3.42
2023-04-04T17:38:10.805Z,2.85
2023-04-04T17:40:40.831Z,2.47
2023-04-04T17:43:11.075Z,3.42
2023-04-04T17:45:44.210Z,3.23
2023-04-04T17:48:14.598Z,3.04
2023-04-04T17:50:44.486Z,3.04
2023-04-04T17:53:14.221Z,7.98
2023-04-04T17:55:44.761Z,9.50
2023-04-04T17:58:15.655Z,6.08
2023-04-04T18:00:45.492Z,7.22
2023-04-04T18:03:16.199Z,7.22
2023-04-04T18:05:46.379Z,4.94
2023-04-04T18:08:16.690Z,4.75
2023-04-04T18:10:46.413Z,4.37
2023-04-04T18:13:16.686Z,4.56
2023-04-04T18:15:46.614Z,4.56
2023-04-04T18:18:17.185Z,3.80
2023-04-04T18:20:48.320Z,3.42
2023-04-04T18:23:18.196Z,3.80
2023-04-04T18:25:48.081Z,4.56
2023-04-04T18:28:16.514Z,3.42
2023-04-04T18:30:45.094Z,3.42
2023-04-04T18:33:14.495Z,3.61
2023-04-04T18:35:44.179Z,4.37
2023-04-04T18:38:12.628Z,4.56
2023-04-04T18:40:41.923Z,5.13
2023-04-04T18:43:09.403Z,3.99
2023-04-04T18:45:41.213Z,3.80
2023-04-04T18:48:12.596Z,3.61
2023-04-04T18:50:42.617Z,3.80
2023-04-04T18:53:12.941Z,3.42
2023-04-04T18:55:42.868Z,3.99
2023-04-04T18:58:12.653Z,4.37
2023-04-04T19:00:42.775Z,4.56
2023-04-04T19:03:13.404Z,3.61
2023-04-04T19:05:48.878Z,3.61
2023-04-04T19:08:19.989Z,3.80
2023-04-04T19:10:50.982Z,3.80
2023-04-04T19:13:21.120Z,3.42
2023-04-04T19:15:50.898Z,3.80
2023-04-04T19:18:20.779Z,3.42
2023-04-04T19:20:50.502Z,3.61
2023-04-04T19:23:21.320Z,3.61
2023-04-04T19:25:51.360Z,3.04
2023-04-04T19:28:21.302Z,3.61
2023-04-04T19:30:54.334Z,3.99
2023-04-04T19:33:28.660Z,3.61
2023-04-04T19:36:09.438Z,3.42
2023-04-04T19:38:49.218Z,3.42
2023-04-04T19:41:22.990Z,3.42
2023-04-04T19:43:52.760Z,3.42
2023-04-04T19:46:29.525Z,3.61
2023-04-04T19:49:11.480Z,3.61
2023-04-04T19:51:55.361Z,2.85
2023-04-04T19:54:41.960Z,3.61
2023-04-04T19:57:20.473Z,2.85
2023-04-04T19:59:59.138Z,3.04
2023-04-04T20:02:34.914Z,3.04
2023-04-04T20:05:30.503Z,3.61
2023-04-04T20:08:01.458Z,3.61
2023-04-04T20:10:41.817Z,2.85
2023-04-04T20:13:14.310Z,3.42
2023-04-04T20:15:43.990Z,3.80
2023-04-04T20:18:24.902Z,3.23
2023-04-04T20:21:04.828Z,4.37
2023-04-04T20:23:45.687Z,4.37
2023-04-04T20:26:40.956Z,3.80
2023-04-04T20:29:15.764Z,3.80
2023-04-04T20:31:52.789Z,3.80
2023-04-04T20:34:46.847Z,3.42
2023-04-04T20:37:22.418Z,3.61
2023-04-04T20:40:14.748Z,4.56
2023-04-04T20:47:02.347Z,4.18
2023-04-04T20:49:32.203Z,4.37
2023-04-04T20:52:01.937Z,4.94
2023-04-04T20:54:34.036Z,4.75
2023-04-04T20:57:04.927Z,4.56
2023-04-04T20:59:38.063Z,4.56
2023-04-04T21:02:16.643Z,5.89
2023-04-04T21:04:49.721Z,5.70
2023-04-04T21:07:39.013Z,5.13
2023-04-04T21:10:26.997Z,5.32
2023-04-04T21:13:00.915Z,6.27
2023-04-04T21:15:38.210Z,6.08
2023-04-04T21:18:11.678Z,7.98
2023-04-04T21:21:08.761Z,9.69
2023-04-04T21:23:53.643Z,8.93
2023-04-04T21:26:34.201Z,11.40
2023-04-04T21:29:07.876Z,13.30
2023-04-04T21:31:43.271Z,12.54
2023-04-04T21:34:23.057Z,13.11
2023-04-04T21:36:56.539Z,13.11
2023-04-04T21:39:29.854Z,12.73
2023-04-04T21:42:03.612Z,11.59
2023-04-04T21:44:35.033Z,11.02
2023-04-04T21:47:04.925Z,11.78
2023-04-04T21:49:34.591Z,12.16
2023-04-04T21:52:04.446Z,10.26
2023-04-04T21:54:34.173Z,10.26
2023-04-04T21:57:04.036Z,8.55
2023-04-04T21:59:33.859Z,9.88
2023-04-04T22:02:03.742Z,9.50
2023-04-04T22:04:33.608Z,8.36
2023-04-04T22:07:03.501Z,8.36
2023-04-04T22:09:33.272Z,7.22
2023-04-04T22:12:03.724Z,7.41
2023-04-04T22:14:33.965Z,7.03
2023-04-04T22:17:05.458Z,7.41
2023-04-04T22:19:43.469Z,7.41
2023-04-04T22:22:13.572Z,7.41
2023-04-04T22:24:44.863Z,8.55
2023-04-04T22:27:14.671Z,7.60
2023-04-04T22:29:44.501Z,7.60
2023-04-04T22:32:14.299Z,7.79
2023-04-04T22:34:44.346Z,6.08
2023-04-04T22:37:19.142Z,6.84
2023-04-04T22:39:52.367Z,7.98
2023-04-04T22:42:22.797Z,7.22
2023-04-04T22:44:52.605Z,6.27
2023-04-04T22:47:21.334Z,7.41
2023-04-04T22:49:49.687Z,7.60
2023-04-04T22:52:22.603Z,6.46
2023-04-04T22:54:53.390Z,7.03
2023-04-04T22:57:23.191Z,6.46
2023-04-04T22:59:53.035Z,7.03
2023-04-04T23:02:22.820Z,7.79
2023-04-04T23:04:52.581Z,6.84
2023-04-04T23:07:23.150Z,6.46
2023-04-04T23:09:53.070Z,6.46
2023-04-04T23:12:22.959Z,7.03
2023-04-04T23:14:52.882Z,7.22
2023-04-04T23:17:22.587Z,7.03
2023-04-04T23:19:52.451Z,6.84
2023-04-04T23:22:22.458Z,6.65
2023-04-04T23:24:52.341Z,7.22
2023-04-04T23:27:22.049Z,5.89
2023-04-04T23:29:51.856Z,7.03
2023-04-04T23:32:20.433Z,6.65
2023-04-04T23:34:49.144Z,5.89
2023-04-04T23:37:17.624Z,7.22
2023-04-04T23:39:45.417Z,7.79
2023-04-04T23:42:18.749Z,7.98
2023-04-04T23:44:48.475Z,6.65
2023-04-04T23:47:18.896Z,7.03
2023-04-04T23:49:48.635Z,6.27
2023-04-04T23:52:18.396Z,7.41
2023-04-04T23:54:48.222Z,6.84
2023-04-04T23:57:18.137Z,7.03
2023-04-04T23:59:47.962Z,6.84
